LOWWGCLP

Guest
Details From LOWW - Wien Schwechat
To GCLP - Gran Canaria - Gando
Flight Number -
Tags Generated
Created
Modified
Stats Distance 1,916 nm / 3,548 km
Max Altitude 0 ft / 0 m
Waypoints 8
Social Downloads 1
Likes 0
Share VATSIM

Download

Looking for another format? Having issues loading an existing format? Contact us
Advertisement - Login to hide

Notes

Generated

Route

LOWW OZE24 VALBO BL008 SOFIA BRIKE ECKOS GCLP

ID Type Via Altitude Latitude Longitude Leg Dist Tot Dist Heading (true) Name
O LOWW APT - 0 ft / 0 m 48.11978˚ 16.57818˚ - 0 nm - -
OZE24 FIX - 0 ft / 0 m 46.01706˚ 11.13138˚ 256 nm 256 nm 242° / 238° -
VALBO FIX - 0 ft / 0 m 44.05944˚ 6.89445˚ 214 nm 470 nm 238° / 235° -
BL008 FIX - 0 ft / 0 m 41.65425˚ 2.37648˚ 245 nm 716 nm 236° / 232° -
SOFIA FIX - 0 ft / 0 m 39.27361˚ -1.49556˚ 227 nm 944 nm 232° / 230° -
BRIKE FIX - 0 ft / 0 m 36.50478˚ -5.41645˚ 249 nm 1193 nm 229° / 227° -
ECKOS FIX - 0 ft / 0 m 28.03739˚ -15.33712˚ 714 nm 1908 nm 227° / 222° -
O GCLP APT - 0 ft / 0 m 27.91818˚ -15.39035˚ 7 nm 1916 nm 202° / 202° -

Altitude Profile

Advertisement - Login to hide

Weather


0- 5 10 15 20 25 30 35+ Temperature / ° C

Clouds and Precipitation
Forecast for 2017-12-19 00:00 UTC. Updated 2 hours ago

Ground ~20,000 ft ~40,000 ft Winds

LOWW

Details ICAO LOWW (VIE)
Name Wien Schwechat
Region Austria
Timezone Europe/Vienna (UTC+1.0)
Stats Elevation 600 ft / 183 m (AMSL)
Location 48.110068° 16.569637°
Runways 2
Magnetic Variation 4.258° E

METAR

LOWW 182050Z 33007KT 9999 FEW038 BKN041 00/M03 Q1028 NOSIG

Decode

TAF

TAF LOWW 181715Z 1818/1924 30006KT 9999 SCT030 TX02/1913Z TNM04/1907Z TEMPO 1818/1924 31010KT BKN030

Decode

Departure Runways

ID Width Length Bearing (true) Bearing (mag) Surface Threshold Offset Overrun Length
11 148 ft / 45 m 11,457 ft / 3,492 m 115.99° 111.73° Asphalt 0 ft / 0 m 0 ft / 0 m
16 148 ft / 45 m 11,811 ft / 3,600 m 164.23° 159.97° Asphalt 0 ft / 0 m 33 ft / 10 m
29 148 ft / 45 m 11,457 ft / 3,492 m 296.03° 291.77° Asphalt 0 ft / 0 m 0 ft / 0 m
34 148 ft / 45 m 11,811 ft / 3,600 m 344.24° 339.98° Asphalt 0 ft / 0 m 0 ft / 0 m

GCLP

Details ICAO GCLP (LPA)
Name Gran Canaria
Region Canary Islands
Timezone Atlantic/Canary (UTC+0.0)
Stats Elevation 77 ft / 23 m (AMSL)
Location 27.931544° -15.385592°
Runways 2
Magnetic Variation 4.683° W

METAR

GCLP 182100Z 36012KT 9999 FEW018 18/15 Q1025 NOSIG

Decode

TAF

TAF GCLP 182000Z 1821/1921 01014KT 9999 SCT030 TX20/1913Z TN16/1906Z= TAF AMD KGRK 182018Z 1820/1922 VRB06KT 1600 BR OVC002 QNH3009INS BECMG 1914/1915 VRB03KT 3200 -RA BR OVC007 QNH3002INS TX14/1821Z TN11/1916Z

Decode

Destination Runways

ID Width Length Bearing (true) Bearing (mag) Surface Threshold Offset Overrun Length
03L 148 ft / 45 m 10,203 ft / 3,110 m 21.33° 26.01° Asphalt 0 ft / 0 m 656 ft / 200 m
03R 148 ft / 45 m 10,200 ft / 3,109 m 21.32° 26.00° Asphalt 0 ft / 0 m 673 ft / 205 m
21L 148 ft / 45 m 10,200 ft / 3,109 m 201.33° 206.01° Asphalt 0 ft / 0 m 689 ft / 210 m
21R 148 ft / 45 m 10,203 ft / 3,110 m 201.33° 206.01° Asphalt 0 ft / 0 m 755 ft / 230 m

Approach Navaids

Runway Type Ident Frequency Range Bearing (true) Bearing (mag) Slope Elevation
03L Localiser ILP 109.90 MHz 18 nm / 33 km 21.33° 26.02° - 77 ft / 23 m (AMSL)
03L Glidescope ILP 109.90 MHz 10 nm / 19 km 21.33° 26.02° 3.00° 102 ft / 31 m (AMSL)
03L DME ILP 109.90 MHz 18 nm / 33 km - - - 102 ft / 31 m (AMSL)
21R Localiser RLP 110.70 MHz 18 nm / 33 km 201.32° 206.01° - 77 ft / 23 m (AMSL)
21R Glidescope RLP 110.70 MHz 10 nm / 19 km 201.33° 206.02° 3.00° 77 ft / 23 m (AMSL)
21R DME RLP 110.70 MHz 18 nm / 33 km - - - 57 ft / 17 m (AMSL)

Popular Alternatives